Time;durP1;ratioP1;P1;durP2;ratioP2;P2;SDS_P1;SDS_P2;PMS_P1;PMS_P2;Temp;Humidity;BMP_temperature;BMP_pressure;BME280_temperature;BME280_humidity;BME280_pressure;Samples;Min_cycle;Max_cycle;Signal;HPM_P1;HPM_P2
2022/07/24 00:01:46;;;;;;;3.17;2.88;;;;;24.40;101766.00;;;;5032514;28;20203;-76
2022/07/24 00:04:13;;;;;;;3.35;3.05;;;;;24.30;101765.00;;;;5030767;28;20201;-76
2022/07/24 00:06:40;;;;;;;3.15;2.85;;;;;24.30;101764.00;;;;5041050;28;20541;-75
2022/07/24 00:09:08;;;;;;;3.10;2.80;;;;;24.30;101759.00;;;;5039215;28;20200;-75
2022/07/24 00:11:36;;;;;;;4.47;2.85;;;;;24.30;101765.00;;;;5036818;28;20200;-75
2022/07/24 00:14:04;;;;;;;5.90;3.22;;;;;24.30;101761.00;;;;5040589;28;20231;-76
2022/07/24 00:16:31;;;;;;;4.05;3.30;;;;;24.30;101765.00;;;;5038284;28;20212;-75
2022/07/24 00:18:58;;;;;;;3.03;2.67;;;;;24.20;101770.00;;;;5037257;28;20200;-76
2022/07/24 00:21:26;;;;;;;2.85;2.58;;;;;24.20;101772.00;;;;5033327;28;20187;-76
2022/07/24 00:23:53;;;;;;;4.07;3.33;;;;;24.20;101768.00;;;;5037540;28;20657;-75
2022/07/24 00:26:20;;;;;;;3.47;2.80;;;;;24.20;101764.00;;;;5043277;28;20199;-76
2022/07/24 00:28:49;;;;;;;3.92;3.10;;;;;24.20;101765.00;;;;5030910;28;20200;-75
2022/07/24 00:31:17;;;;;;;6.32;3.50;;;;;24.20;101765.00;;;;5039920;28;20408;-75
2022/07/24 00:33:44;;;;;;;5.18;3.15;;;;;24.10;101765.00;;;;5030271;28;20651;-75
2022/07/24 00:36:13;;;;;;;4.38;3.90;;;;;24.10;101764.00;;;;5041900;28;20192;-76
2022/07/24 00:38:40;;;;;;;3.58;3.28;;;;;24.10;101764.00;;;;5035987;28;20200;-76
2022/07/24 00:41:07;;;;;;;3.38;3.08;;;;;24.10;101770.00;;;;5039412;28;20745;-75
2022/07/24 00:43:35;;;;;;;3.70;3.13;;;;;24.10;101764.00;;;;5032093;28;20674;-76
2022/07/24 00:46:04;;;;;;;4.15;3.20;;;;;24.00;101758.00;;;;5038055;28;20209;-76
2022/07/24 00:48:31;;;;;;;7.25;3.22;;;;;24.00;101755.00;;;;5035614;28;20208;-75
2022/07/24 00:50:58;;;;;;;4.50;3.80;;;;;24.00;101755.00;;;;5029484;28;20698;-76
2022/07/24 00:53:26;;;;;;;4.38;3.75;;;;;24.00;101753.00;;;;5033104;28;20195;-76
2022/07/24 00:55:53;;;;;;;3.80;3.47;;;;;24.00;101751.00;;;;5046610;28;20591;-76
2022/07/24 00:58:21;;;;;;;5.65;3.97;;;;;24.00;101752.00;;;;5048626;28;20724;-76
2022/07/24 01:00:48;;;;;;;3.75;3.15;;;;;24.00;101754.00;;;;5045706;28;20197;-76
2022/07/24 01:03:17;;;;;;;4.18;3.78;;;;;23.90;101764.00;;;;5030559;28;20207;-76
2022/07/24 01:05:45;;;;;;;3.85;3.45;;;;;23.90;101758.00;;;;5032721;28;20196;-75
2022/07/24 01:08:12;;;;;;;6.85;4.00;;;;;23.90;101756.00;;;;5030760;28;20250;-75
2022/07/24 01:10:40;;;;;;;4.50;3.70;;;;;23.90;101749.00;;;;5037202;28;20546;-75
2022/07/24 01:13:08;;;;;;;4.60;3.83;;;;;23.90;101751.00;;;;5047652;28;20196;-75
2022/07/24 01:15:35;;;;;;;4.28;3.72;;;;;23.90;101751.00;;;;5032989;28;20228;-75
2022/07/24 01:18:03;;;;;;;4.18;3.53;;;;;23.80;101746.00;;;;5030072;28;20209;-76
2022/07/24 01:20:36;;;;;;;3.78;3.38;;;;;23.80;101745.00;;;;5029128;28;20192;-75
2022/07/24 01:23:04;;;;;;;4.32;3.90;;;;;23.80;101737.00;;;;5032482;28;20204;-76
2022/07/24 01:25:32;;;;;;;4.95;4.18;;;;;23.80;101742.00;;;;5028953;28;20204;-75
2022/07/24 01:27:59;;;;;;;5.50;4.07;;;;;23.80;101744.00;;;;5044626;28;20540;-75
2022/07/24 01:30:26;;;;;;;4.80;4.22;;;;;23.80;101741.00;;;;5028663;28;20401;-75
2022/07/24 01:32:54;;;;;;;4.60;4.18;;;;;23.80;101741.00;;;;5033279;28;20200;-75
2022/07/24 01:35:21;;;;;;;10.50;3.97;;;;;23.80;101748.00;;;;5028634;28;20729;-75
2022/07/24 01:37:50;;;;;;;4.47;3.85;;;;;23.70;101749.00;;;;5041741;28;20188;-75
2022/07/24 01:40:17;;;;;;;4.68;4.22;;;;;23.70;101740.00;;;;5028573;28;20582;-75
2022/07/24 01:42:44;;;;;;;5.65;4.90;;;;;23.70;101736.00;;;;5029158;28;20211;-76
2022/07/24 01:45:12;;;;;;;8.73;4.70;;;;;23.70;101744.00;;;;5030400;28;20206;-76
2022/07/24 01:47:39;;;;;;;4.90;4.07;;;;;23.70;101745.00;;;;5046438;28;20196;-75
2022/07/24 01:50:07;;;;;;;6.78;4.43;;;;;23.70;101744.00;;;;5034701;28;20227;-75
2022/07/24 01:52:34;;;;;;;5.90;4.30;;;;;23.70;101739.00;;;;5028826;28;20207;-75
2022/07/24 01:55:03;;;;;;;5.10;4.60;;;;;23.60;101736.00;;;;5032710;28;20216;-75
2022/07/24 01:57:31;;;;;;;5.50;4.53;;;;;23.60;101736.00;;;;5038768;28;20234;-75
2022/07/24 01:59:59;;;;;;;6.78;4.28;;;;;23.60;101737.00;;;;5041226;28;20202;-75
2022/07/24 02:02:27;;;;;;;6.40;4.55;;;;;23.60;101737.00;;;;5045188;28;20192;-75
2022/07/24 02:04:54;;;;;;;5.72;4.75;;;;;23.60;101739.00;;;;5047545;28;20210;-75
2022/07/24 02:07:22;;;;;;;7.35;4.93;;;;;23.50;101738.00;;;;5046281;28;20614;-75
2022/07/24 02:09:49;;;;;;;6.00;4.13;;;;;23.50;101737.00;;;;5036158;28;20207;-75
2022/07/24 02:12:18;;;;;;;5.15;4.65;;;;;23.50;101737.00;;;;5028444;28;20212;-75
2022/07/24 02:14:45;;;;;;;6.82;4.82;;;;;23.50;101736.00;;;;5040190;28;20230;-75
2022/07/24 02:17:12;;;;;;;5.10;4.47;;;;;23.50;101736.00;;;;5036930;28;20200;-75
2022/07/24 02:19:39;;;;;;;5.90;4.65;;;;;23.50;101735.00;;;;5028126;28;20566;-76
2022/07/24 02:22:07;;;;;;;5.40;4.55;;;;;23.50;101724.00;;;;5028507;28;20200;-75
2022/07/24 02:24:34;;;;;;;4.82;4.32;;;;;23.50;101718.00;;;;5038070;28;20206;-75
2022/07/24 02:27:01;;;;;;;5.35;4.85;;;;;23.40;101717.00;;;;5037272;28;20203;-76
2022/07/24 02:29:30;;;;;;;4.90;4.25;;;;;23.40;101722.00;;;;5028279;28;20189;-76
2022/07/24 02:31:57;;;;;;;5.28;4.38;;;;;23.40;101714.00;;;;5028528;28;20204;-76
2022/07/24 02:34:24;;;;;;;6.18;4.47;;;;;23.40;101716.00;;;;5032361;28;20206;-75
2022/07/24 02:36:52;;;;;;;4.85;4.30;;;;;23.40;101704.00;;;;5038581;28;20193;-76
2022/07/24 02:39:19;;;;;;;5.40;4.32;;;;;23.40;101711.00;;;;5028588;28;20188;-75
2022/07/24 02:41:46;;;;;;;6.07;4.68;;;;;23.40;101713.00;;;;5028033;28;20196;-75
2022/07/24 02:44:13;;;;;;;4.88;4.05;;;;;23.40;101704.00;;;;5033116;28;20203;-76
2022/07/24 02:46:42;;;;;;;6.93;4.43;;;;;23.30;101707.00;;;;5039354;28;20560;-76
2022/07/24 02:49:09;;;;;;;6.30;4.90;;;;;23.30;101709.00;;;;5037413;28;20199;-75
2022/07/24 02:51:37;;;;;;;5.32;4.57;;;;;23.30;101715.00;;;;5042356;28;20204;-75
2022/07/24 02:54:04;;;;;;;6.03;4.70;;;;;23.30;101710.00;;;;5036067;28;20191;-76
2022/07/24 02:56:31;;;;;;;7.15;5.10;;;;;23.30;101707.00;;;;5031896;28;20223;-76
2022/07/24 02:58:59;;;;;;;5.97;4.70;;;;;23.30;101711.00;;;;5028043;28;20216;-76
2022/07/24 03:01:27;;;;;;;5.85;4.78;;;;;23.30;101707.00;;;;5045979;28;20211;-76
2022/07/24 03:03:55;;;;;;;6.60;5.68;;;;;23.20;101704.00;;;;5044619;28;20226;-76
2022/07/24 03:06:22;;;;;;;6.68;4.32;;;;;23.20;101709.00;;;;5027548;28;20199;-76
2022/07/24 03:08:50;;;;;;;4.85;4.35;;;;;23.20;101708.00;;;;5042642;28;20199;-76
2022/07/24 03:11:20;;;;;;;5.05;4.57;;;;;23.10;101702.00;;;;5028286;28;20204;-76
2022/07/24 03:13:48;;;;;;;7.75;5.63;;;;;23.10;101699.00;;;;5032032;28;20670;-76
2022/07/24 03:16:16;;;;;;;6.30;5.32;;;;;23.10;101698.00;;;;5038188;28;20590;-76
2022/07/24 03:18:48;;;;;;;6.18;5.18;;;;;23.10;101683.00;;;;5031628;28;20192;-76
2022/07/24 03:21:17;;;;;;;7.00;4.95;;;;;23.10;101696.00;;;;5037127;28;20296;-76
2022/07/24 03:23:44;;;;;;;6.57;4.97;;;;;23.10;101686.00;;;;5031128;28;20189;-76
2022/07/24 03:26:14;;;;;;;5.72;5.15;;;;;23.10;101685.00;;;;5031115;28;20192;-76
2022/07/24 03:28:41;;;;;;;7.75;4.80;;;;;23.10;101682.00;;;;5040439;28;20207;-76
2022/07/24 03:31:08;;;;;;;7.80;5.18;;;;;23.00;101684.00;;;;5031257;28;20204;-75
2022/07/24 03:33:35;;;;;;;6.43;5.15;;;;;23.00;101678.00;;;;5031597;28;20193;-76
2022/07/24 03:36:03;;;;;;;5.70;4.75;;;;;23.00;101676.00;;;;5034511;28;20222;-75
2022/07/24 03:38:32;;;;;;;4.70;4.30;;;;;23.00;101671.00;;;;5041162;28;20227;-75
2022/07/24 03:40:59;;;;;;;5.35;4.68;;;;;23.00;101673.00;;;;5031619;28;20254;-76
2022/07/24 03:43:26;;;;;;;5.47;4.90;;;;;23.00;101673.00;;;;5031009;28;20204;-76
2022/07/24 03:45:53;;;;;;;9.55;5.47;;;;;23.00;101675.00;;;;5033794;28;20228;-75
2022/07/24 03:48:21;;;;;;;6.85;5.25;;;;;23.00;101677.00;;;;5036178;28;20197;-75
2022/07/24 03:50:48;;;;;;;5.97;5.35;;;;;22.90;101680.00;;;;5032921;28;20200;-76
2022/07/24 03:53:15;;;;;;;5.65;4.93;;;;;22.90;101682.00;;;;5031230;28;20197;-76
2022/07/24 03:55:44;;;;;;;6.15;5.40;;;;;22.90;101678.00;;;;5030765;28;20717;-76
2022/07/24 03:58:11;;;;;;;6.15;5.20;;;;;22.90;101677.00;;;;5038163;28;20232;-76
2022/07/24 04:00:38;;;;;;;6.03;4.65;;;;;22.90;101681.00;;;;5046189;28;20196;-76
2022/07/24 04:03:06;;;;;;;6.82;5.57;;;;;22.90;101678.00;;;;5031723;28;20199;-76
2022/07/24 04:05:33;;;;;;;6.57;5.63;;;;;22.90;101684.00;;;;5050292;28;20203;-76
2022/07/24 04:08:00;;;;;;;6.72;6.03;;;;;22.90;101678.00;;;;5044253;28;20210;-76
2022/07/24 04:10:28;;;;;;;7.88;5.78;;;;;22.80;101675.00;;;;5039151;28;20196;-75
2022/07/24 04:12:57;;;;;;;10.10;6.40;;;;;22.80;101680.00;;;;5034487;28;20224;-75
2022/07/24 04:15:24;;;;;;;6.55;5.40;;;;;22.80;101676.00;;;;5038893;28;20227;-76
2022/07/24 04:17:51;;;;;;;6.88;6.03;;;;;22.80;101679.00;;;;5032677;28;20570;-76
2022/07/24 04:20:18;;;;;;;7.25;5.85;;;;;22.80;101680.00;;;;5030375;28;20284;-75
2022/07/24 04:22:47;;;;;;;8.35;6.05;;;;;22.80;101681.00;;;;5038539;28;20189;-76
2022/07/24 04:25:14;;;;;;;7.75;6.22;;;;;22.80;101690.00;;;;5036859;28;20283;-76
2022/07/24 04:27:43;;;;;;;8.02;5.53;;;;;22.80;101684.00;;;;5048239;28;20196;-76
2022/07/24 04:30:13;;;;;;;6.68;5.97;;;;;22.80;101686.00;;;;5036405;28;20263;-76
2022/07/24 04:32:40;;;;;;;7.07;6.13;;;;;22.80;101689.00;;;;5030612;28;20204;-76
2022/07/24 04:35:08;;;;;;;7.32;5.88;;;;;22.80;101700.00;;;;5032789;28;20203;-76
2022/07/24 04:37:36;;;;;;;7.22;6.10;;;;;22.80;101701.00;;;;5034629;28;20199;-76
2022/07/24 04:40:03;;;;;;;9.45;5.57;;;;;22.80;101699.00;;;;5035299;28;20196;-76
2022/07/24 04:42:30;;;;;;;7.70;5.93;;;;;22.80;101690.00;;;;5038162;28;20211;-76
2022/07/24 04:44:58;;;;;;;7.47;6.53;;;;;22.80;101685.00;;;;5035737;28;20219;-76
2022/07/24 04:47:26;;;;;;;8.55;6.72;;;;;22.80;101683.00;;;;5032642;28;20204;-76
2022/07/24 04:49:54;;;;;;;10.25;6.78;;;;;22.80;101686.00;;;;5038621;28;20590;-76
2022/07/24 04:52:21;;;;;;;7.70;6.63;;;;;22.80;101686.00;;;;5030514;28;20200;-76
2022/07/24 04:54:48;;;;;;;7.22;6.40;;;;;22.80;101678.00;;;;5040242;28;20200;-76
2022/07/24 04:57:15;;;;;;;9.70;6.82;;;;;22.90;101682.00;;;;5032840;28;20231;-75
2022/07/24 04:59:43;;;;;;;7.55;6.43;;;;;22.90;101676.00;;;;5045751;28;20571;-76
2022/07/24 05:02:10;;;;;;;8.25;6.80;;;;;22.90;101677.00;;;;5041951;28;20197;-76
2022/07/24 05:04:39;;;;;;;9.65;7.35;;;;;23.00;101678.00;;;;5037495;28;20199;-76
2022/07/24 05:07:06;;;;;;;9.98;6.90;;;;;23.00;101683.00;;;;5032804;28;20207;-76
2022/07/24 05:09:35;;;;;;;8.35;7.13;;;;;23.10;101680.00;;;;5030117;28;20196;-76
2022/07/24 05:12:02;;;;;;;8.38;7.40;;;;;23.10;101681.00;;;;5029914;28;20690;-76
2022/07/24 05:14:29;;;;;;;8.25;6.85;;;;;23.20;101681.00;;;;5034510;28;20198;-76
2022/07/24 05:16:56;;;;;;;8.65;6.18;;;;;23.20;101679.00;;;;5047029;28;20254;-76
2022/07/24 05:19:24;;;;;;;11.07;7.80;;;;;23.20;101679.00;;;;5029768;28;20196;-76
2022/07/24 05:21:52;;;;;;;9.80;7.60;;;;;23.30;101681.00;;;;5045306;28;20203;-76
2022/07/24 05:24:20;;;;;;;7.88;7.13;;;;;23.40;101688.00;;;;5047617;28;20203;-76
2022/07/24 05:26:48;;;;;;;10.23;8.10;;;;;23.40;101684.00;;;;5044196;28;20200;-76
2022/07/24 05:29:15;;;;;;;9.95;7.68;;;;;23.50;101687.00;;;;5030077;28;20201;-76
2022/07/24 05:31:42;;;;;;;8.98;7.53;;;;;23.50;101697.00;;;;5029741;28;20200;-76
2022/07/24 05:34:10;;;;;;;10.85;8.20;;;;;23.60;101690.00;;;;5041648;28;20666;-77
2022/07/24 05:36:38;;;;;;;9.30;7.38;;;;;23.60;101702.00;;;;5030665;28;20227;-76
2022/07/24 05:39:07;;;;;;;8.98;7.32;;;;;23.70;101692.00;;;;5031970;28;20196;-76
2022/07/24 05:41:34;;;;;;;9.23;7.93;;;;;23.80;101697.00;;;;5041368;28;20203;-76
2022/07/24 05:44:02;;;;;;;9.45;8.00;;;;;23.90;101698.00;;;;5036380;28;20199;-76
2022/07/24 05:46:29;;;;;;;8.82;7.57;;;;;23.90;101705.00;;;;5035893;28;20196;-76
2022/07/24 05:48:56;;;;;;;10.63;7.57;;;;;24.00;101697.00;;;;5037805;28;20200;-76
2022/07/24 05:51:25;;;;;;;10.85;8.50;;;;;24.10;101697.00;;;;5038957;28;20211;-76
2022/07/24 05:53:53;;;;;;;9.48;8.43;;;;;24.10;101692.00;;;;5040149;28;20203;-76
2022/07/24 05:56:27;;;;;;;9.25;8.18;;;;;24.20;101698.00;;;;5073398;27;1215235;-76
2022/07/24 05:58:54;;;;;;;10.90;8.05;;;;;24.30;101710.00;;;;5094660;28;20198;-76
2022/07/24 06:01:22;;;;;;;9.80;8.02;;;;;24.40;101706.00;;;;5089545;28;20671;-75
2022/07/24 06:03:49;;;;;;;13.30;8.80;;;;;24.40;101708.00;;;;5091043;28;20447;-75
2022/07/24 06:06:16;;;;;;;10.10;8.07;;;;;24.50;101709.00;;;;5093215;28;20202;-76
2022/07/24 06:08:45;;;;;;;12.00;9.02;;;;;24.60;101717.00;;;;5091986;28;20187;-76
2022/07/24 06:11:12;;;;;;;11.07;7.68;;;;;24.60;101727.00;;;;5088795;28;20199;-76
2022/07/24 06:13:41;;;;;;;9.90;8.02;;;;;24.70;101719.00;;;;5089624;28;20190;-76
2022/07/24 06:16:08;;;;;;;9.82;8.18;;;;;24.80;101718.00;;;;5079308;28;20226;-75
2022/07/24 06:18:36;;;;;;;10.85;8.18;;;;;24.90;101711.00;;;;5070597;28;20207;-76
2022/07/24 06:21:04;;;;;;;10.85;8.20;;;;;25.00;101709.00;;;;5075147;28;20211;-75
2022/07/24 06:23:32;;;;;;;8.45;6.82;;;;;25.00;101715.00;;;;5084355;28;20195;-76
2022/07/24 06:25:59;;;;;;;11.10;7.55;;;;;25.10;101715.00;;;;5086421;28;20209;-76
2022/07/24 06:28:26;;;;;;;9.05;6.50;;;;;25.20;101717.00;;;;5087548;28;20244;-76
2022/07/24 06:30:55;;;;;;;9.80;7.65;;;;;25.20;101710.00;;;;5087430;28;20209;-75
2022/07/24 06:33:23;;;;;;;11.27;7.18;;;;;25.30;101704.00;;;;5089383;28;20660;-76
2022/07/24 06:35:50;;;;;;;8.77;6.10;;;;;25.40;101701.00;;;;5089308;28;20224;-76
2022/07/24 06:38:17;;;;;;;10.50;7.45;;;;;25.50;101703.00;;;;5089543;28;20199;-76
2022/07/24 06:40:45;;;;;;;12.88;6.43;;;;;25.60;101704.00;;;;5065746;28;20196;-77
2022/07/24 06:43:12;;;;;;;8.23;5.28;;;;;25.70;101690.00;;;;5078051;28;20203;-77
2022/07/24 06:45:39;;;;;;;9.55;5.97;;;;;25.70;101697.00;;;;5081718;28;20199;-76
2022/07/24 06:48:08;;;;;;;9.35;6.88;;;;;25.80;101702.00;;;;5089265;28;20214;-76
2022/07/24 06:50:36;;;;;;;7.45;5.97;;;;;25.90;101702.00;;;;5080421;28;20219;-76
2022/07/24 06:53:03;;;;;;;6.93;6.18;;;;;26.00;101708.00;;;;5070234;28;20196;-77
2022/07/24 06:55:30;;;;;;;8.90;6.10;;;;;26.00;101703.00;;;;5070205;28;20226;-77
2022/07/24 06:57:58;;;;;;;8.45;5.63;;;;;26.10;101698.00;;;;5073154;28;20203;-76
2022/07/24 07:00:25;;;;;;;6.63;5.78;;;;;26.20;101704.00;;;;5071798;28;20217;-77
2022/07/24 07:02:52;;;;;;;7.93;5.22;;;;;26.30;101713.00;;;;5068531;28;20199;-77
2022/07/24 07:05:21;;;;;;;5.72;4.50;;;;;26.30;101716.00;;;;5062615;28;20831;-77
2022/07/24 07:07:48;;;;;;;5.80;4.72;;;;;26.40;101706.00;;;;5049859;28;20199;-76
2022/07/24 07:10:16;;;;;;;7.47;4.93;;;;;26.50;101710.00;;;;5049256;28;20196;-77
2022/07/24 07:12:43;;;;;;;5.40;4.13;;;;;26.60;101713.00;;;;5048199;28;20210;-76
2022/07/24 07:15:11;;;;;;;4.97;4.47;;;;;26.70;101714.00;;;;5047983;28;20228;-74
2022/07/24 07:17:40;;;;;;;6.78;4.05;;;;;26.80;101712.00;;;;5050099;28;20196;-75
2022/07/24 07:20:08;;;;;;;7.00;4.40;;;;;26.90;101706.00;;;;5048469;28;20207;-75
2022/07/24 07:22:37;;;;;;;4.07;2.88;;;;;27.00;101717.00;;;;5049692;28;20192;-75
2022/07/24 07:25:05;;;;;;;5.20;3.45;;;;;27.10;101714.00;;;;5049557;28;20202;-75
2022/07/24 07:27:33;;;;;;;4.47;2.75;;;;;27.20;101714.00;;;;5049678;28;20200;-76
2022/07/24 07:30:00;;;;;;;6.95;3.22;;;;;27.30;101708.00;;;;5049863;28;20290;-75
2022/07/24 07:32:27;;;;;;;3.88;2.53;;;;;27.40;101715.00;;;;5049468;28;20206;-74
2022/07/24 07:34:55;;;;;;;3.60;2.70;;;;;27.40;101717.00;;;;5046668;28;20242;-74
2022/07/24 07:37:23;;;;;;;2.17;1.85;;;;;27.50;101709.00;;;;5043011;28;20200;-75
2022/07/24 07:39:52;;;;;;;4.00;2.28;;;;;27.60;101713.00;;;;5049301;28;21210;-75
2022/07/24 07:42:19;;;;;;;2.38;1.70;;;;;27.70;101713.00;;;;5047668;28;20588;-75
2022/07/24 07:44:48;;;;;;;2.10;1.90;;;;;27.80;101716.00;;;;5037075;28;20834;-77
2022/07/24 07:47:15;;;;;;;3.85;2.00;;;;;27.90;101710.00;;;;5049267;28;20725;-76
2022/07/24 07:49:43;;;;;;;1.85;1.63;;;;;28.00;101710.00;;;;5048312;28;20206;-77
2022/07/24 07:52:10;;;;;;;2.10;1.67;;;;;28.10;101716.00;;;;5047638;28;20208;-77
2022/07/24 07:54:38;;;;;;;1.60;1.40;;;;;28.20;101721.00;;;;5039566;28;20224;-76
2022/07/24 07:57:06;;;;;;;1.52;1.30;;;;;28.30;101719.00;;;;5048802;28;20195;-76
2022/07/24 07:59:33;;;;;;;1.83;1.58;;;;;28.40;101722.00;;;;5048904;28;20199;-77
2022/07/24 08:02:01;;;;;;;2.55;1.80;;;;;28.50;101715.00;;;;5049254;28;20196;-77
2022/07/24 08:04:28;;;;;;;7.82;1.80;;;;;28.60;101713.00;;;;5048539;28;20187;-77
2022/07/24 08:06:55;;;;;;;1.52;1.20;;;;;28.70;101720.00;;;;5048222;28;20306;-76
2022/07/24 08:09:23;;;;;;;3.95;1.63;;;;;28.80;101724.00;;;;5049306;28;20200;-77
2022/07/24 08:11:50;;;;;;;1.85;1.60;;;;;28.90;101721.00;;;;5048733;28;20196;-77
2022/07/24 08:14:18;;;;;;;1.75;1.45;;;;;29.00;101728.00;;;;5049118;28;20204;-76
2022/07/24 08:16:46;;;;;;;2.00;1.40;;;;;29.00;101721.00;;;;5045049;28;20227;-77
2022/07/24 08:19:13;;;;;;;2.40;1.58;;;;;29.10;101730.00;;;;5047428;28;20192;-76
2022/07/24 08:21:40;;;;;;;1.70;1.45;;;;;29.10;101725.00;;;;5047523;28;20880;-76
2022/07/24 08:24:08;;;;;;;1.73;1.50;;;;;29.10;101721.00;;;;5047882;28;20203;-77
2022/07/24 08:26:35;;;;;;;1.73;1.30;;;;;29.10;101725.00;;;;5048778;28;20187;-76
2022/07/24 08:29:03;;;;;;;1.23;1.13;;;;;29.10;101720.00;;;;5029734;28;20224;-76
2022/07/24 08:31:31;;;;;;;1.55;1.08;;;;;29.10;101729.00;;;;5048799;28;20203;-76
2022/07/24 08:33:59;;;;;;;2.53;1.42;;;;;29.20;101719.00;;;;5048709;28;21011;-76
2022/07/24 08:36:26;;;;;;;3.20;1.80;;;;;29.20;101721.00;;;;5048820;28;20230;-77
2022/07/24 08:38:53;;;;;;;2.20;1.60;;;;;29.30;101714.00;;;;5047819;28;20200;-76
2022/07/24 08:41:20;;;;;;;1.60;1.50;;;;;29.40;101717.00;;;;5048282;28;20298;-76
2022/07/24 08:43:48;;;;;;;1.30;1.10;;;;;29.40;101717.00;;;;5046269;28;20547;-76
2022/07/24 08:46:17;;;;;;;1.60;1.30;;;;;29.50;101708.00;;;;5048653;28;20196;-76
2022/07/24 08:48:46;;;;;;;2.22;1.35;;;;;29.60;101707.00;;;;5048710;28;20200;-76
2022/07/24 08:51:15;;;;;;;2.22;1.50;;;;;29.70;101706.00;;;;5048137;28;20223;-76
2022/07/24 08:53:43;;;;;;;1.70;1.50;;;;;29.80;101710.00;;;;5048036;28;20203;-76
2022/07/24 08:56:11;;;;;;;1.58;1.27;;;;;29.90;101704.00;;;;5047496;28;20322;-77
2022/07/24 08:58:39;;;;;;;1.60;1.38;;;;;30.00;101700.00;;;;5048942;28;20197;-77
2022/07/24 09:01:08;;;;;;;1.60;1.27;;;;;30.00;101701.00;;;;5043824;28;20204;-76
2022/07/24 09:03:43;;;;;;;1.23;1.05;;;;;30.00;101701.00;;;;5028740;28;20200;-77
2022/07/24 09:06:13;;;;;;;1.10;1.00;;;;;30.10;101697.00;;;;5048132;28;20577;-77
2022/07/24 09:08:41;;;;;;;1.48;1.38;;;;;30.30;101705.00;;;;5048621;28;20192;-76
2022/07/24 09:11:09;;;;;;;1.55;1.45;;;;;30.40;101703.00;;;;5048538;28;20199;-77
2022/07/24 09:16:24;;;;;;;2.42;1.45;;;;;30.60;101692.00;;;;5047734;28;20242;-77
2022/07/24 09:19:02;;;;;;;4.88;1.85;;;;;30.80;101692.00;;;;5037168;28;20204;-77
2022/07/24 09:21:34;;;;;;;2.08;1.60;;;;;30.80;101699.00;;;;5047994;28;20202;-76
2022/07/24 09:24:02;;;;;;;3.13;2.25;;;;;31.00;101694.00;;;;5047244;28;20223;-78
2022/07/24 09:26:45;;;;;;;3.58;1.67;;;;;30.90;101698.00;;;;5047594;28;20227;-77
2022/07/24 09:29:13;;;;;;;3.03;2.17;;;;;31.10;101694.00;;;;5047132;28;20196;-77
2022/07/24 09:31:55;;;;;;;2.63;2.13;;;;;31.10;101698.00;;;;5047899;28;20222;-76
2022/07/24 09:34:22;;;;;;;3.08;2.20;;;;;31.20;101695.00;;;;5047017;28;20670;-77
2022/07/24 09:36:59;;;;;;;2.45;1.73;;;;;31.20;101691.00;;;;5039787;28;20222;-77
2022/07/24 09:39:27;;;;;;;1.95;1.77;;;;;31.40;101689.00;;;;5047353;28;20245;-77
2022/07/24 09:41:56;;;;;;;3.50;1.77;;;;;31.50;101690.00;;;;5047129;28;20692;-77
2022/07/24 09:44:25;;;;;;;1.98;1.77;;;;;31.70;101693.00;;;;5047717;28;20688;-77
2022/07/24 09:46:57;;;;;;;1.60;1.35;;;;;31.80;101699.00;;;;5047206;28;20195;-77
2022/07/24 09:49:26;;;;;;;2.13;1.63;;;;;31.90;101694.00;;;;5047129;28;20206;-77
2022/07/24 09:52:12;;;;;;;2.63;1.95;;;;;32.00;101690.00;;;;5044471;28;20223;-76
2022/07/24 09:54:42;;;;;;;2.75;1.65;;;;;32.20;101695.00;;;;5034496;28;20219;-77
2022/07/24 09:57:21;;;;;;;2.00;1.63;;;;;32.20;101693.00;;;;5047324;28;20230;-77
2022/07/24 09:59:50;;;;;;;1.58;1.48;;;;;32.30;101697.00;;;;5048012;28;20195;-77
2022/07/24 10:02:19;;;;;;;2.50;1.83;;;;;32.50;101692.00;;;;5047757;28;20199;-77
2022/07/24 10:04:48;;;;;;;2.53;1.52;;;;;32.60;101686.00;;;;5046984;28;20203;-77
2022/07/24 10:07:18;;;;;;;1.67;1.58;;;;;32.70;101688.00;;;;5047856;28;20206;-77
2022/07/24 10:09:48;;;;;;;2.17;1.75;;;;;32.80;101691.00;;;;5044958;28;20206;-77
2022/07/24 10:12:17;;;;;;;2.90;2.15;;;;;32.90;101692.00;;;;5047113;28;20190;-77
2022/07/24 10:14:46;;;;;;;2.17;1.90;;;;;32.90;101692.00;;;;5047262;28;20657;-77
2022/07/24 10:17:15;;;;;;;2.30;1.75;;;;;33.00;101691.00;;;;5042364;28;20227;-77
2022/07/24 10:19:46;;;;;;;2.03;1.83;;;;;33.10;101690.00;;;;5032427;28;20685;-76
2022/07/24 10:22:19;;;;;;;3.50;1.70;;;;;33.10;101684.00;;;;5046600;28;20195;-77
2022/07/24 10:24:56;;;;;;;1.73;1.63;;;;;33.10;101680.00;;;;5047374;28;20203;-78
2022/07/24 10:27:29;;;;;;;1.75;1.65;;;;;33.20;101675.00;;;;5032566;28;20208;-77
2022/07/24 10:29:59;;;;;;;1.55;1.45;;;;;33.20;101677.00;;;;5044696;28;20670;-77
2022/07/24 10:32:27;;;;;;;1.85;1.70;;;;;33.30;101680.00;;;;5047323;28;20207;-77
2022/07/24 10:35:09;;;;;;;2.08;1.63;;;;;33.20;101672.00;;;;5046946;28;20209;-77
2022/07/24 10:37:48;;;;;;;1.63;1.52;;;;;33.30;101673.00;;;;5046986;28;20230;-77
2022/07/24 10:40:23;;;;;;;2.65;1.65;;;;;33.40;101674.00;;;;5047000;28;20205;-77
2022/07/24 10:43:10;;;;;;;2.33;1.70;;;;;33.30;101677.00;;;;5047657;28;20211;-77
2022/07/24 10:45:38;;;;;;;1.98;1.60;;;;;33.50;101677.00;;;;5035310;28;20197;-76
2022/07/24 10:48:31;;;;;;;1.50;1.40;;;;;33.40;101672.00;;;;5050435;28;20202;-77
2022/07/24 10:51:07;;;;;;;10.75;1.90;;;;;33.40;101670.00;;;;5040360;28;20234;-77
2022/07/24 10:53:52;;;;;;;1.40;1.30;;;;;33.40;101667.00;;;;5051195;28;20201;-76
2022/07/24 10:56:23;;;;;;;3.45;1.90;;;;;33.60;101667.00;;;;5029862;28;20232;-77
2022/07/24 10:59:02;;;;;;;1.20;1.10;;;;;33.50;101665.00;;;;5030914;28;20265;-77
2022/07/24 11:01:38;;;;;;;1.90;1.70;;;;;33.50;101666.00;;;;5030903;28;20576;-77
2022/07/24 11:04:27;;;;;;;2.20;1.70;;;;;33.50;101661.00;;;;5042710;28;20986;-78
2022/07/24 11:06:56;;;;;;;1.98;1.60;;;;;33.60;101655.00;;;;5049966;28;20203;-77
2022/07/24 11:09:26;;;;;;;2.90;2.08;;;;;33.60;101648.00;;;;5050118;28;20195;-77
2022/07/24 11:12:07;;;;;;;2.22;1.50;;;;;33.50;101648.00;;;;5050634;28;20191;-77
2022/07/24 11:14:51;;;;;;;1.30;1.20;;;;;33.40;101655.00;;;;5050058;28;20248;-76
2022/07/24 11:17:39;;;;;;;2.38;1.75;;;;;33.50;101654.00;;;;5045973;28;20878;-77
2022/07/24 11:20:07;;;;;;;1.33;1.20;;;;;33.60;101649.00;;;;5050566;28;20207;-77
2022/07/24 11:22:47;;;;;;;1.60;1.50;;;;;33.60;101643.00;;;;5049793;28;20207;-77
2022/07/24 11:25:21;;;;;;;2.30;1.83;;;;;33.60;101643.00;;;;5050229;28;20195;-77
2022/07/24 11:27:52;;;;;;;2.63;2.03;;;;;33.70;101649.00;;;;5050068;28;20202;-77
2022/07/24 11:30:20;;;;;;;2.88;1.33;;;;;33.70;101644.00;;;;5049785;28;20706;-77
2022/07/24 11:32:48;;;;;;;1.65;1.55;;;;;33.80;101644.00;;;;5049543;28;20207;-76
2022/07/24 11:35:16;;;;;;;2.15;1.58;;;;;33.80;101643.00;;;;5037291;28;20211;-77
2022/07/24 11:37:46;;;;;;;2.03;1.83;;;;;33.80;101641.00;;;;5050010;28;20238;-77
2022/07/24 11:40:18;;;;;;;1.65;1.42;;;;;33.80;101636.00;;;;5049093;28;20954;-77
2022/07/24 11:42:45;;;;;;;1.60;1.50;;;;;33.80;101635.00;;;;5049749;28;20276;-75
2022/07/24 11:45:13;;;;;;;2.80;1.60;;;;;33.80;101623.00;;;;5049380;28;20693;-75
2022/07/24 11:47:40;;;;;;;1.52;1.42;;;;;33.80;101627.00;;;;5050093;28;20204;-75
2022/07/24 11:50:09;;;;;;;2.25;1.42;;;;;33.80;101628.00;;;;5048502;28;20214;-75
2022/07/24 11:52:38;;;;;;;1.40;1.30;;;;;33.80;101621.00;;;;5038904;28;20231;-74
2022/07/24 11:55:08;;;;;;;2.65;1.48;;;;;33.80;101619.00;;;;5049047;28;20709;-75
2022/07/24 11:57:38;;;;;;;1.90;1.40;;;;;33.80;101614.00;;;;5049819;28;20678;-75
2022/07/24 12:00:08;;;;;;;1.75;1.50;;;;;33.90;101617.00;;;;5049252;28;20195;-74
2022/07/24 12:02:36;;;;;;;1.67;1.30;;;;;33.90;101614.00;;;;5049157;28;20302;-75
2022/07/24 12:05:04;;;;;;;2.15;1.38;;;;;33.90;101607.00;;;;5049123;28;20194;-75
2022/07/24 12:07:31;;;;;;;1.90;1.63;;;;;33.90;101598.00;;;;5048850;28;20199;-75
2022/07/24 12:10:00;;;;;;;2.45;1.63;;;;;34.00;101604.00;;;;5038420;28;20203;-75
2022/07/24 12:12:30;;;;;;;1.40;1.30;;;;;34.00;101598.00;;;;5049708;28;20207;-75
2022/07/24 12:15:05;;;;;;;1.90;1.70;;;;;34.00;101599.00;;;;5049651;28;20191;-74
2022/07/24 12:17:34;;;;;;;1.52;1.23;;;;;34.00;101606.00;;;;5049779;28;20238;-74
2022/07/24 12:20:06;;;;;;;1.35;1.25;;;;;34.00;101599.00;;;;5049042;28;20192;-75